Aérodrome :
LOGIN :

S'inscrire | Disclaimer

   EN    FR    IT 

 










Légende :    VFR   VFR Marginal   IFR   IFR Intensif   IFR Très Intensif
Visi : 
Plafond : 
>= 8 km
>= 3000ft
5 à 8 km
1000 à 3000 ft
1500m à 5 km
500 à 1000 ft
800 à 1500m
200 à 500 ft
< 800m
< 200 ft
Symboles :   Orages  Brouillard  Fortes neiges  Fortes précipitations  Vent > 20 kt
SIGMETs :   Divers  Orages  Givrage  Turbulence  Onde Orograph.  Cendres Volcan.






- Altitude de l'aérodrome : 194 ft
- Code IATA : LME


LFRM - Le Mans

DERNIER METAR :
  • 140030Z AUTO 20007KT 180V240 9999 FEW010 OVC086 05/04 Q0994

METARs EXPIRÉS :
  • 140000Z AUTO 21007KT 180V240 CAVOK 05/05 Q0994
  • 132330Z AUTO 21006KT 170V250 CAVOK 06/05 Q0994
  • 132300Z AUTO 20005KT 170V240 9999 FEW039 BKN110 OVC130 06/05 Q0994
  • 132230Z AUTO 20007KT 150V240 9999 -RA FEW032 OVC039 06/05 Q0994
  • 132200Z AUTO 21012KT 180V250 9999 -RA SCT013 SCT018 BKN028 07/05 Q0994

TAF TAF LFRM
Valide du 13 à 12h jusqu'au 14 à 12h UTC


131100Z 1312/1412 22007KT CAVOK
BECMG 1312/1314 23010KT
TEMPO 1316/1318 4500 -SHRA BKN030TCU
TEMPO 1320/1322 25020G30KT 3000 SHRA BKN008 BKN020CB
TEMPO 1322/1401 3000 SHRA BKN020TCU SCT030CB
BECMG 1404/1406 VRB03KT



MET'MAP, la Météo Aéronautique d'un coup d'oeil ! - Copyright ORBIFLY Décembre 2007 - Disclaimer

ORBIFLY MET'MAP TEAM :

Programmation & Développement : Alexandra Zaïnal
Conception & Développement : Baudouin d'Aumeries
Co-Programmation & Développement : Marc-Olivier Méhu
Soutien technique & logistique : Manuel Goepfert

Contact : metmap@orbifly.com




SOURCES & CREDITS :

   NOAA